sensor_id;sensor_type;location;lat;lon;timestamp;temperature;humidity
67549;DHT22;54382;53.524;49.326;2022-07-21T00:00:54;22.60;55.20
67549;DHT22;54382;53.524;49.326;2022-07-21T00:03:21;22.50;55.20
67549;DHT22;54382;53.524;49.326;2022-07-21T00:05:48;22.50;55.50
67549;DHT22;54382;53.524;49.326;2022-07-21T00:08:15;22.50;55.60
67549;DHT22;54382;53.524;49.326;2022-07-21T00:10:41;22.50;55.50
67549;DHT22;54382;53.524;49.326;2022-07-21T00:13:08;22.60;55.70
67549;DHT22;54382;53.524;49.326;2022-07-21T00:15:35;22.60;55.70
67549;DHT22;54382;53.524;49.326;2022-07-21T00:18:02;22.60;55.60
67549;DHT22;54382;53.524;49.326;2022-07-21T00:20:28;22.60;55.40
67549;DHT22;54382;53.524;49.326;2022-07-21T00:22:56;22.60;55.60
67549;DHT22;54382;53.524;49.326;2022-07-21T00:25:23;22.60;55.70
67549;DHT22;54382;53.524;49.326;2022-07-21T00:27:50;22.60;55.70
67549;DHT22;54382;53.524;49.326;2022-07-21T00:30:17;22.70;56.10
67549;DHT22;54382;53.524;49.326;2022-07-21T00:32:44;22.70;56.10
67549;DHT22;54382;53.524;49.326;2022-07-21T00:35:11;22.70;55.70
67549;DHT22;54382;53.524;49.326;2022-07-21T00:37:39;22.70;55.60
67549;DHT22;54382;53.524;49.326;2022-07-21T00:40:07;22.70;55.60
67549;DHT22;54382;53.524;49.326;2022-07-21T00:42:35;22.70;55.70
67549;DHT22;54382;53.524;49.326;2022-07-21T00:45:04;22.70;55.70
67549;DHT22;54382;53.524;49.326;2022-07-21T00:47:32;22.80;55.60
67549;DHT22;54382;53.524;49.326;2022-07-21T00:50:01;22.80;55.60
67549;DHT22;54382;53.524;49.326;2022-07-21T00:52:29;22.80;55.50
67549;DHT22;54382;53.524;49.326;2022-07-21T00:54:56;22.80;55.20
67549;DHT22;54382;53.524;49.326;2022-07-21T00:57:24;22.90;55.10
67549;DHT22;54382;53.524;49.326;2022-07-21T00:59:50;22.90;55.10
67549;DHT22;54382;53.524;49.326;2022-07-21T01:02:17;22.90;55.10
67549;DHT22;54382;53.524;49.326;2022-07-21T01:04:44;22.90;55.00
67549;DHT22;54382;53.524;49.326;2022-07-21T01:07:10;22.90;55.00
67549;DHT22;54382;53.524;49.326;2022-07-21T01:09:37;22.90;55.00
67549;DHT22;54382;53.524;49.326;2022-07-21T01:12:04;22.90;55.20
67549;DHT22;54382;53.524;49.326;2022-07-21T01:14:32;22.90;55.60
67549;DHT22;54382;53.524;49.326;2022-07-21T01:17:00;23.00;56.90
67549;DHT22;54382;53.524;49.326;2022-07-21T01:19:28;23.10;56.30
67549;DHT22;54382;53.524;49.326;2022-07-21T01:21:55;23.10;55.90
67549;DHT22;54382;53.524;49.326;2022-07-21T01:24:22;23.20;55.70
67549;DHT22;54382;53.524;49.326;2022-07-21T01:26:51;23.30;55.80
67549;DHT22;54382;53.524;49.326;2022-07-21T01:29:19;23.40;55.80
67549;DHT22;54382;53.524;49.326;2022-07-21T01:31:47;23.60;55.30
67549;DHT22;54382;53.524;49.326;2022-07-21T01:34:14;23.70;54.90
67549;DHT22;54382;53.524;49.326;2022-07-21T01:36:41;23.80;54.70
67549;DHT22;54382;53.524;49.326;2022-07-21T01:39:08;23.90;54.60
67549;DHT22;54382;53.524;49.326;2022-07-21T01:41:53;24.00;54.50
67549;DHT22;54382;53.524;49.326;2022-07-21T01:44:20;24.10;54.50
67549;DHT22;54382;53.524;49.326;2022-07-21T01:46:50;24.10;54.20
67549;DHT22;54382;53.524;49.326;2022-07-21T01:49:18;24.30;54.30
67549;DHT22;54382;53.524;49.326;2022-07-21T01:51:46;24.40;54.20
67549;DHT22;54382;53.524;49.326;2022-07-21T01:54:13;24.60;53.60
67549;DHT22;54382;53.524;49.326;2022-07-21T01:56:40;24.90;53.00
67549;DHT22;54382;53.524;49.326;2022-07-21T01:59:07;25.10;52.50
67549;DHT22;54382;53.524;49.326;2022-07-21T02:01:34;25.40;51.90
67549;DHT22;54382;53.524;49.326;2022-07-21T02:04:02;25.60;51.50
67549;DHT22;54382;53.524;49.326;2022-07-21T02:06:30;25.70;51.20
67549;DHT22;54382;53.524;49.326;2022-07-21T02:08:57;25.70;50.80
67549;DHT22;54382;53.524;49.326;2022-07-21T02:11:24;25.80;50.60
67549;DHT22;54382;53.524;49.326;2022-07-21T02:13:51;25.80;50.40
67549;DHT22;54382;53.524;49.326;2022-07-21T02:16:17;25.90;50.40
67549;DHT22;54382;53.524;49.326;2022-07-21T02:18:45;25.90;50.30
67549;DHT22;54382;53.524;49.326;2022-07-21T02:21:11;25.90;50.20
67549;DHT22;54382;53.524;49.326;2022-07-21T02:23:38;26.00;50.90
67549;DHT22;54382;53.524;49.326;2022-07-21T02:26:05;26.10;50.30
67549;DHT22;54382;53.524;49.326;2022-07-21T02:28:31;26.20;50.10
67549;DHT22;54382;53.524;49.326;2022-07-21T02:30:58;26.30;50.00
67549;DHT22;54382;53.524;49.326;2022-07-21T02:33:25;26.40;49.80
67549;DHT22;54382;53.524;49.326;2022-07-21T02:35:51;26.60;49.60
67549;DHT22;54382;53.524;49.326;2022-07-21T02:38:18;26.70;49.20
67549;DHT22;54382;53.524;49.326;2022-07-21T02:40:45;26.80;49.00
67549;DHT22;54382;53.524;49.326;2022-07-21T02:43:11;26.90;48.70
67549;DHT22;54382;53.524;49.326;2022-07-21T02:45:38;27.00;48.60
67549;DHT22;54382;53.524;49.326;2022-07-21T02:48:12;27.20;48.40
67549;DHT22;54382;53.524;49.326;2022-07-21T02:50:42;27.20;48.20
67549;DHT22;54382;53.524;49.326;2022-07-21T02:53:14;27.30;48.10
67549;DHT22;54382;53.524;49.326;2022-07-21T02:55:46;27.30;48.10
67549;DHT22;54382;53.524;49.326;2022-07-21T02:58:16;27.40;48.30
67549;DHT22;54382;53.524;49.326;2022-07-21T03:00:57;27.40;48.40
67549;DHT22;54382;53.524;49.326;2022-07-21T03:03:27;27.40;48.90
67549;DHT22;54382;53.524;49.326;2022-07-21T03:05:56;27.40;48.10
67549;DHT22;54382;53.524;49.326;2022-07-21T03:08:24;27.50;48.20
67549;DHT22;54382;53.524;49.326;2022-07-21T03:10:51;27.60;47.90
67549;DHT22;54382;53.524;49.326;2022-07-21T03:13:17;27.60;47.50
67549;DHT22;54382;53.524;49.326;2022-07-21T03:15:44;27.70;47.40
67549;DHT22;54382;53.524;49.326;2022-07-21T03:18:11;27.80;47.30
67549;DHT22;54382;53.524;49.326;2022-07-21T03:20:39;28.00;47.20
67549;DHT22;54382;53.524;49.326;2022-07-21T03:23:07;28.10;47.00
67549;DHT22;54382;53.524;49.326;2022-07-21T03:25:34;28.40;46.60
67549;DHT22;54382;53.524;49.326;2022-07-21T03:28:01;28.60;46.40
67549;DHT22;54382;53.524;49.326;2022-07-21T03:30:28;28.80;46.40
67549;DHT22;54382;53.524;49.326;2022-07-21T03:32:57;29.00;46.40
67549;DHT22;54382;53.524;49.326;2022-07-21T03:35:24;29.20;46.20
67549;DHT22;54382;53.524;49.326;2022-07-21T03:37:56;29.40;45.70
67549;DHT22;54382;53.524;49.326;2022-07-21T03:40:26;29.70;45.10
67549;DHT22;54382;53.524;49.326;2022-07-21T03:42:56;30.00;44.30
67549;DHT22;54382;53.524;49.326;2022-07-21T03:45:25;30.20;43.30
67549;DHT22;54382;53.524;49.326;2022-07-21T03:47:52;30.60;42.80
67549;DHT22;54382;53.524;49.326;2022-07-21T03:50:19;30.90;42.00
67549;DHT22;54382;53.524;49.326;2022-07-21T03:52:46;31.10;41.60
67549;DHT22;54382;53.524;49.326;2022-07-21T03:55:13;31.30;40.80
67549;DHT22;54382;53.524;49.326;2022-07-21T03:57:48;31.40;40.80
67549;DHT22;54382;53.524;49.326;2022-07-21T04:00:22;31.60;40.30
67549;DHT22;54382;53.524;49.326;2022-07-21T04:02:51;31.80;40.00
67549;DHT22;54382;53.524;49.326;2022-07-21T04:05:20;31.90;39.70
67549;DHT22;54382;53.524;49.326;2022-07-21T04:07:49;32.10;40.00
67549;DHT22;54382;53.524;49.326;2022-07-21T04:10:22;32.40;38.60
67549;DHT22;54382;53.524;49.326;2022-07-21T04:12:54;32.60;38.10
67549;DHT22;54382;53.524;49.326;2022-07-21T04:15:22;32.70;37.10
67549;DHT22;54382;53.524;49.326;2022-07-21T04:17:49;32.80;36.30
67549;DHT22;54382;53.524;49.326;2022-07-21T04:20:17;32.90;37.20
67549;DHT22;54382;53.524;49.326;2022-07-21T04:22:45;33.00;36.70
67549;DHT22;54382;53.524;49.326;2022-07-21T04:25:14;33.00;36.60
67549;DHT22;54382;53.524;49.326;2022-07-21T04:27:41;33.00;36.60
67549;DHT22;54382;53.524;49.326;2022-07-21T04:30:11;32.90;36.90
67549;DHT22;54382;53.524;49.326;2022-07-21T04:32:39;32.90;37.30
67549;DHT22;54382;53.524;49.326;2022-07-21T04:35:06;32.90;37.20
67549;DHT22;54382;53.524;49.326;2022-07-21T04:37:34;32.90;37.30
67549;DHT22;54382;53.524;49.326;2022-07-21T04:40:01;32.90;37.00
67549;DHT22;54382;53.524;49.326;2022-07-21T04:42:28;32.90;36.60
67549;DHT22;54382;53.524;49.326;2022-07-21T04:44:55;33.00;36.20
67549;DHT22;54382;53.524;49.326;2022-07-21T04:47:22;33.00;36.00
67549;DHT22;54382;53.524;49.326;2022-07-21T04:49:49;33.10;35.90
67549;DHT22;54382;53.524;49.326;2022-07-21T04:52:15;33.20;35.80
67549;DHT22;54382;53.524;49.326;2022-07-21T04:54:42;33.30;35.80
67549;DHT22;54382;53.524;49.326;2022-07-21T04:57:09;33.40;35.10
67549;DHT22;54382;53.524;49.326;2022-07-21T04:59:35;33.60;35.30
67549;DHT22;54382;53.524;49.326;2022-07-21T05:02:03;33.80;35.00
67549;DHT22;54382;53.524;49.326;2022-07-21T05:04:30;33.80;34.20
67549;DHT22;54382;53.524;49.326;2022-07-21T05:06:57;33.90;34.40
67549;DHT22;54382;53.524;49.326;2022-07-21T05:09:23;33.90;34.40
67549;DHT22;54382;53.524;49.326;2022-07-21T05:11:50;33.90;34.50
67549;DHT22;54382;53.524;49.326;2022-07-21T05:14:17;33.80;34.30
67549;DHT22;54382;53.524;49.326;2022-07-21T05:16:43;33.80;34.20
67549;DHT22;54382;53.524;49.326;2022-07-21T05:19:10;33.70;34.60
67549;DHT22;54382;53.524;49.326;2022-07-21T05:21:37;33.60;34.30
67549;DHT22;54382;53.524;49.326;2022-07-21T05:24:04;33.60;34.30
67549;DHT22;54382;53.524;49.326;2022-07-21T05:26:31;33.60;34.70
67549;DHT22;54382;53.524;49.326;2022-07-21T05:28:58;33.70;34.90
67549;DHT22;54382;53.524;49.326;2022-07-21T05:31:24;33.70;34.60
67549;DHT22;54382;53.524;49.326;2022-07-21T05:33:51;33.80;34.50
67549;DHT22;54382;53.524;49.326;2022-07-21T05:36:18;34.00;34.00
67549;DHT22;54382;53.524;49.326;2022-07-21T05:38:45;34.20;34.00
67549;DHT22;54382;53.524;49.326;2022-07-21T05:41:12;34.40;34.20
67549;DHT22;54382;53.524;49.326;2022-07-21T05:43:39;34.60;32.80
67549;DHT22;54382;53.524;49.326;2022-07-21T05:46:05;34.70;32.60
67549;DHT22;54382;53.524;49.326;2022-07-21T05:48:32;34.80;32.80
67549;DHT22;54382;53.524;49.326;2022-07-21T05:50:58;34.90;33.00
67549;DHT22;54382;53.524;49.326;2022-07-21T05:53:25;35.10;32.00
67549;DHT22;54382;53.524;49.326;2022-07-21T05:55:52;35.10;31.50
67549;DHT22;54382;53.524;49.326;2022-07-21T05:58:19;35.20;31.60
67549;DHT22;54382;53.524;49.326;2022-07-21T06:00:50;35.20;31.70
67549;DHT22;54382;53.524;49.326;2022-07-21T06:03:46;35.20;31.80
67549;DHT22;54382;53.524;49.326;2022-07-21T06:06:15;35.20;31.80
67549;DHT22;54382;53.524;49.326;2022-07-21T06:08:46;35.10;31.90
67549;DHT22;54382;53.524;49.326;2022-07-21T06:11:16;35.00;31.90
67549;DHT22;54382;53.524;49.326;2022-07-21T06:13:44;34.90;32.40
67549;DHT22;54382;53.524;49.326;2022-07-21T06:16:11;34.70;32.50
67549;DHT22;54382;53.524;49.326;2022-07-21T06:18:38;34.60;32.20
67549;DHT22;54382;53.524;49.326;2022-07-21T06:21:05;34.50;31.50
67549;DHT22;54382;53.524;49.326;2022-07-21T06:23:32;34.50;31.70
67549;DHT22;54382;53.524;49.326;2022-07-21T06:25:59;34.40;32.00
67549;DHT22;54382;53.524;49.326;2022-07-21T06:28:25;34.40;32.10
67549;DHT22;54382;53.524;49.326;2022-07-21T06:30:52;34.30;32.60
67549;DHT22;54382;53.524;49.326;2022-07-21T06:33:19;34.30;32.70
67549;DHT22;54382;53.524;49.326;2022-07-21T06:35:45;34.20;32.40
67549;DHT22;54382;53.524;49.326;2022-07-21T06:38:12;34.20;32.50
67549;DHT22;54382;53.524;49.326;2022-07-21T06:40:40;34.20;32.90
67549;DHT22;54382;53.524;49.326;2022-07-21T06:43:07;34.20;33.10
67549;DHT22;54382;53.524;49.326;2022-07-21T06:45:33;34.20;33.10
67549;DHT22;54382;53.524;49.326;2022-07-21T06:48:04;34.20;33.20
67549;DHT22;54382;53.524;49.326;2022-07-21T06:50:33;34.20;33.30
67549;DHT22;54382;53.524;49.326;2022-07-21T06:53:01;34.30;33.30
67549;DHT22;54382;53.524;49.326;2022-07-21T06:55:29;34.30;33.10
67549;DHT22;54382;53.524;49.326;2022-07-21T06:57:56;34.40;33.40
67549;DHT22;54382;53.524;49.326;2022-07-21T07:00:23;34.40;32.50
67549;DHT22;54382;53.524;49.326;2022-07-21T07:02:50;34.40;32.60
67549;DHT22;54382;53.524;49.326;2022-07-21T07:05:17;34.40;32.50
67549;DHT22;54382;53.524;49.326;2022-07-21T07:07:43;34.50;32.20
67549;DHT22;54382;53.524;49.326;2022-07-21T07:10:10;34.60;31.40
67549;DHT22;54382;53.524;49.326;2022-07-21T07:12:37;34.60;30.90
67549;DHT22;54382;53.524;49.326;2022-07-21T07:15:04;34.70;30.70
67549;DHT22;54382;53.524;49.326;2022-07-21T07:17:31;34.90;31.50
67549;DHT22;54382;53.524;49.326;2022-07-21T07:19:58;34.90;31.60
67549;DHT22;54382;53.524;49.326;2022-07-21T07:22:25;35.00;31.20
67549;DHT22;54382;53.524;49.326;2022-07-21T07:24:52;35.10;30.80
67549;DHT22;54382;53.524;49.326;2022-07-21T07:27:18;35.20;31.20
67549;DHT22;54382;53.524;49.326;2022-07-21T07:29:45;35.20;31.20
67549;DHT22;54382;53.524;49.326;2022-07-21T07:32:12;35.20;31.70
67549;DHT22;54382;53.524;49.326;2022-07-21T07:34:39;35.20;31.10
67549;DHT22;54382;53.524;49.326;2022-07-21T07:37:05;35.00;31.10
67549;DHT22;54382;53.524;49.326;2022-07-21T07:39:32;34.90;31.10
67549;DHT22;54382;53.524;49.326;2022-07-21T07:41:59;34.90;31.00
67549;DHT22;54382;53.524;49.326;2022-07-21T07:44:25;34.80;31.30
67549;DHT22;54382;53.524;49.326;2022-07-21T07:46:52;34.80;31.60
67549;DHT22;54382;53.524;49.326;2022-07-21T07:49:19;34.80;31.70
67549;DHT22;54382;53.524;49.326;2022-07-21T07:51:45;34.70;31.70
67549;DHT22;54382;53.524;49.326;2022-07-21T07:54:12;34.70;31.60
67549;DHT22;54382;53.524;49.326;2022-07-21T07:56:38;34.70;31.70
67549;DHT22;54382;53.524;49.326;2022-07-21T07:59:05;34.70;31.80
67549;DHT22;54382;53.524;49.326;2022-07-21T08:01:32;34.70;32.00
67549;DHT22;54382;53.524;49.326;2022-07-21T08:03:59;34.70;31.90
67549;DHT22;54382;53.524;49.326;2022-07-21T08:06:25;34.70;32.00
67549;DHT22;54382;53.524;49.326;2022-07-21T08:08:52;34.80;32.10
67549;DHT22;54382;53.524;49.326;2022-07-21T08:11:19;34.90;32.00
67549;DHT22;54382;53.524;49.326;2022-07-21T08:13:45;34.90;32.30
67549;DHT22;54382;53.524;49.326;2022-07-21T08:16:12;35.10;32.00
67549;DHT22;54382;53.524;49.326;2022-07-21T08:18:42;35.20;31.90
67549;DHT22;54382;53.524;49.326;2022-07-21T08:21:09;35.30;31.60
67549;DHT22;54382;53.524;49.326;2022-07-21T08:23:37;35.40;31.60
67549;DHT22;54382;53.524;49.326;2022-07-21T08:26:04;35.40;31.90
67549;DHT22;54382;53.524;49.326;2022-07-21T08:28:31;35.50;32.00
67549;DHT22;54382;53.524;49.326;2022-07-21T08:30:58;35.60;31.50
67549;DHT22;54382;53.524;49.326;2022-07-21T08:33:25;35.70;30.90
67549;DHT22;54382;53.524;49.326;2022-07-21T08:35:51;35.70;30.10
67549;DHT22;54382;53.524;49.326;2022-07-21T08:38:19;35.80;30.10
67549;DHT22;54382;53.524;49.326;2022-07-21T08:40:46;35.90;30.90
67549;DHT22;54382;53.524;49.326;2022-07-21T08:43:13;35.90;30.50
67549;DHT22;54382;53.524;49.326;2022-07-21T08:45:41;35.90;31.20
67549;DHT22;54382;53.524;49.326;2022-07-21T08:48:08;36.00;30.90
67549;DHT22;54382;53.524;49.326;2022-07-21T08:50:37;36.00;30.30
67549;DHT22;54382;53.524;49.326;2022-07-21T08:53:05;36.00;30.00
67549;DHT22;54382;53.524;49.326;2022-07-21T08:55:36;36.00;30.00
67549;DHT22;54382;53.524;49.326;2022-07-21T08:58:08;36.20;30.20
67549;DHT22;54382;53.524;49.326;2022-07-21T09:00:37;36.20;30.10
67549;DHT22;54382;53.524;49.326;2022-07-21T09:03:16;36.20;30.00
67549;DHT22;54382;53.524;49.326;2022-07-21T09:06:00;36.40;29.90
67549;DHT22;54382;53.524;49.326;2022-07-21T09:08:32;36.60;29.70
67549;DHT22;54382;53.524;49.326;2022-07-21T09:11:13;36.70;29.70
67549;DHT22;54382;53.524;49.326;2022-07-21T09:13:45;36.80;29.90
67549;DHT22;54382;53.524;49.326;2022-07-21T09:16:46;36.90;29.90
67549;DHT22;54382;53.524;49.326;2022-07-21T09:19:26;36.80;29.60
67549;DHT22;54382;53.524;49.326;2022-07-21T09:21:59;36.90;29.30
67549;DHT22;54382;53.524;49.326;2022-07-21T09:24:27;37.00;29.20
67549;DHT22;54382;53.524;49.326;2022-07-21T09:27:03;37.10;29.60
67549;DHT22;54382;53.524;49.326;2022-07-21T09:29:49;37.10;29.40
67549;DHT22;54382;53.524;49.326;2022-07-21T09:32:21;37.10;29.30
67549;DHT22;54382;53.524;49.326;2022-07-21T09:35:07;37.10;29.50
67549;DHT22;54382;53.524;49.326;2022-07-21T09:37:36;37.20;29.60
67549;DHT22;54382;53.524;49.326;2022-07-21T09:40:12;37.30;29.30
67549;DHT22;54382;53.524;49.326;2022-07-21T09:42:42;37.40;28.90
67549;DHT22;54382;53.524;49.326;2022-07-21T09:45:14;37.50;29.00
67549;DHT22;54382;53.524;49.326;2022-07-21T09:47:43;37.60;29.20
67549;DHT22;54382;53.524;49.326;2022-07-21T09:50:13;37.60;28.10
67549;DHT22;54382;53.524;49.326;2022-07-21T09:52:43;37.70;27.90
67549;DHT22;54382;53.524;49.326;2022-07-21T09:55:14;37.80;28.40
67549;DHT22;54382;53.524;49.326;2022-07-21T09:57:42;37.80;28.30
67549;DHT22;54382;53.524;49.326;2022-07-21T10:00:16;37.80;28.30
67549;DHT22;54382;53.524;49.326;2022-07-21T10:02:44;38.00;28.50
67549;DHT22;54382;53.524;49.326;2022-07-21T10:05:17;38.10;28.40
67549;DHT22;54382;53.524;49.326;2022-07-21T10:07:47;38.20;28.50
67549;DHT22;54382;53.524;49.326;2022-07-21T10:10:14;38.40;28.00
67549;DHT22;54382;53.524;49.326;2022-07-21T10:12:43;38.60;28.00
67549;DHT22;54382;53.524;49.326;2022-07-21T10:15:10;38.60;28.00
67549;DHT22;54382;53.524;49.326;2022-07-21T10:17:38;38.80;28.30
67549;DHT22;54382;53.524;49.326;2022-07-21T10:20:26;38.90;28.30
67549;DHT22;54382;53.524;49.326;2022-07-21T10:23:09;39.00;28.10
67549;DHT22;54382;53.524;49.326;2022-07-21T10:25:39;39.00;28.20
67549;DHT22;54382;53.524;49.326;2022-07-21T10:30:39;38.80;28.20
67549;DHT22;54382;53.524;49.326;2022-07-21T10:33:06;38.70;28.20
67549;DHT22;54382;53.524;49.326;2022-07-21T10:35:33;38.60;28.10
67549;DHT22;54382;53.524;49.326;2022-07-21T10:38:01;38.50;28.30
67549;DHT22;54382;53.524;49.326;2022-07-21T10:45:33;38.30;28.70
67549;DHT22;54382;53.524;49.326;2022-07-21T10:48:03;38.30;28.50
67549;DHT22;54382;53.524;49.326;2022-07-21T10:50:39;38.40;28.30
67549;DHT22;54382;53.524;49.326;2022-07-21T10:53:15;38.40;28.20
67549;DHT22;54382;53.524;49.326;2022-07-21T10:55:53;38.50;28.10
67549;DHT22;54382;53.524;49.326;2022-07-21T10:58:27;38.60;28.00
67549;DHT22;54382;53.524;49.326;2022-07-21T11:00:57;38.70;27.90
67549;DHT22;54382;53.524;49.326;2022-07-21T11:03:45;38.80;28.20
67549;DHT22;54382;53.524;49.326;2022-07-21T11:09:04;39.00;27.60
67549;DHT22;54382;53.524;49.326;2022-07-21T11:11:35;39.00;27.80
67549;DHT22;54382;53.524;49.326;2022-07-21T11:19:43;38.80;28.00
67549;DHT22;54382;53.524;49.326;2022-07-21T11:22:20;38.60;28.00
67549;DHT22;54382;53.524;49.326;2022-07-21T11:24:59;38.50;28.00
67549;DHT22;54382;53.524;49.326;2022-07-21T11:27:31;38.40;28.20
67549;DHT22;54382;53.524;49.326;2022-07-21T11:30:00;38.30;28.20
67549;DHT22;54382;53.524;49.326;2022-07-21T11:32:29;38.30;28.10
67549;DHT22;54382;53.524;49.326;2022-07-21T11:35:01;38.30;28.30
67549;DHT22;54382;53.524;49.326;2022-07-21T11:40:00;38.60;28.30
67549;DHT22;54382;53.524;49.326;2022-07-21T11:42:27;38.70;28.20
67549;DHT22;54382;53.524;49.326;2022-07-21T11:44:57;38.60;28.10
67549;DHT22;54382;53.524;49.326;2022-07-21T11:47:24;38.70;28.10
67549;DHT22;54382;53.524;49.326;2022-07-21T11:49:55;38.60;28.10
67549;DHT22;54382;53.524;49.326;2022-07-21T11:52:28;38.70;28.20
67549;DHT22;54382;53.524;49.326;2022-07-21T11:54:57;38.70;28.30
67549;DHT22;54382;53.524;49.326;2022-07-21T11:57:26;38.60;28.40
67549;DHT22;54382;53.524;49.326;2022-07-21T11:59:54;38.60;28.40
67549;DHT22;54382;53.524;49.326;2022-07-21T12:02:26;38.60;28.20
67549;DHT22;54382;53.524;49.326;2022-07-21T12:05:07;38.60;28.20
67549;DHT22;54382;53.524;49.326;2022-07-21T12:07:46;38.60;28.20
67549;DHT22;54382;53.524;49.326;2022-07-21T12:10:28;38.70;28.20
67549;DHT22;54382;53.524;49.326;2022-07-21T12:13:05;38.70;27.90
67549;DHT22;54382;53.524;49.326;2022-07-21T12:15:35;38.60;27.90
67549;DHT22;54382;53.524;49.326;2022-07-21T12:18:07;38.60;28.30
67549;DHT22;54382;53.524;49.326;2022-07-21T12:20:42;38.40;28.20
67549;DHT22;54382;53.524;49.326;2022-07-21T12:23:22;38.30;28.10
67549;DHT22;54382;53.524;49.326;2022-07-21T12:25:53;38.20;28.20
67549;DHT22;54382;53.524;49.326;2022-07-21T12:28:20;38.20;28.20
67549;DHT22;54382;53.524;49.326;2022-07-21T12:30:50;38.20;28.40
67549;DHT22;54382;53.524;49.326;2022-07-21T12:33:27;38.20;28.70
67549;DHT22;54382;53.524;49.326;2022-07-21T12:36:04;38.20;28.70
67549;DHT22;54382;53.524;49.326;2022-07-21T12:38:46;38.10;28.40
67549;DHT22;54382;53.524;49.326;2022-07-21T12:41:19;38.10;28.40
67549;DHT22;54382;53.524;49.326;2022-07-21T12:44:06;38.00;28.70
67549;DHT22;54382;53.524;49.326;2022-07-21T12:46:35;37.90;28.30
67549;DHT22;54382;53.524;49.326;2022-07-21T12:49:06;37.90;28.20
67549;DHT22;54382;53.524;49.326;2022-07-21T12:51:34;37.80;28.00
67549;DHT22;54382;53.524;49.326;2022-07-21T12:54:02;37.80;27.80
67549;DHT22;54382;53.524;49.326;2022-07-21T12:56:32;37.70;28.10
67549;DHT22;54382;53.524;49.326;2022-07-21T12:59:00;37.70;27.90
67549;DHT22;54382;53.524;49.326;2022-07-21T13:01:28;37.70;28.10
67549;DHT22;54382;53.524;49.326;2022-07-21T13:03:57;37.60;28.00
67549;DHT22;54382;53.524;49.326;2022-07-21T13:06:23;37.60;28.20
67549;DHT22;54382;53.524;49.326;2022-07-21T13:08:50;37.60;28.10
67549;DHT22;54382;53.524;49.326;2022-07-21T13:11:19;37.60;28.40
67549;DHT22;54382;53.524;49.326;2022-07-21T13:13:48;37.50;28.20
67549;DHT22;54382;53.524;49.326;2022-07-21T13:16:16;37.50;28.00
67549;DHT22;54382;53.524;49.326;2022-07-21T13:18:43;37.40;28.00
67549;DHT22;54382;53.524;49.326;2022-07-21T13:21:10;37.30;27.90
67549;DHT22;54382;53.524;49.326;2022-07-21T13:23:37;37.30;28.70
67549;DHT22;54382;53.524;49.326;2022-07-21T13:26:04;37.30;28.00
67549;DHT22;54382;53.524;49.326;2022-07-21T13:28:31;37.30;28.10
67549;DHT22;54382;53.524;49.326;2022-07-21T13:31:00;37.30;28.10
67549;DHT22;54382;53.524;49.326;2022-07-21T13:33:27;37.20;28.00
67549;DHT22;54382;53.524;49.326;2022-07-21T13:35:54;37.20;28.40
67549;DHT22;54382;53.524;49.326;2022-07-21T13:38:20;37.20;28.20
67549;DHT22;54382;53.524;49.326;2022-07-21T13:40:47;37.10;28.10
67549;DHT22;54382;53.524;49.326;2022-07-21T13:43:14;37.10;28.30
67549;DHT22;54382;53.524;49.326;2022-07-21T13:45:42;37.10;28.30
67549;DHT22;54382;53.524;49.326;2022-07-21T13:48:08;37.00;28.30
67549;DHT22;54382;53.524;49.326;2022-07-21T13:50:35;37.00;28.20
67549;DHT22;54382;53.524;49.326;2022-07-21T13:53:02;37.00;28.30
67549;DHT22;54382;53.524;49.326;2022-07-21T13:55:29;36.90;28.20
67549;DHT22;54382;53.524;49.326;2022-07-21T13:57:56;36.90;28.50
67549;DHT22;54382;53.524;49.326;2022-07-21T14:00:22;36.70;28.60
67549;DHT22;54382;53.524;49.326;2022-07-21T14:02:49;36.40;29.20
67549;DHT22;54382;53.524;49.326;2022-07-21T14:05:16;35.80;29.60
67549;DHT22;54382;53.524;49.326;2022-07-21T14:07:43;35.10;30.20
67549;DHT22;54382;53.524;49.326;2022-07-21T14:10:10;34.50;31.10
67549;DHT22;54382;53.524;49.326;2022-07-21T14:12:37;34.00;31.90
67549;DHT22;54382;53.524;49.326;2022-07-21T14:15:04;33.40;32.80
67549;DHT22;54382;53.524;49.326;2022-07-21T14:17:31;32.90;33.90
67549;DHT22;54382;53.524;49.326;2022-07-21T14:19:57;32.60;34.40
67549;DHT22;54382;53.524;49.326;2022-07-21T14:22:24;32.40;34.70
67549;DHT22;54382;53.524;49.326;2022-07-21T14:24:50;32.20;35.20
67549;DHT22;54382;53.524;49.326;2022-07-21T14:27:35;31.90;35.90
67549;DHT22;54382;53.524;49.326;2022-07-21T14:30:03;31.70;36.40
67549;DHT22;54382;53.524;49.326;2022-07-21T14:32:30;31.40;37.00
67549;DHT22;54382;53.524;49.326;2022-07-21T14:34:57;31.20;38.10
67549;DHT22;54382;53.524;49.326;2022-07-21T14:37:25;31.00;39.30
67549;DHT22;54382;53.524;49.326;2022-07-21T14:39:51;30.90;40.50
67549;DHT22;54382;53.524;49.326;2022-07-21T14:42:18;30.80;41.30
67549;DHT22;54382;53.524;49.326;2022-07-21T14:44:45;30.70;41.10
67549;DHT22;54382;53.524;49.326;2022-07-21T14:47:12;30.50;40.80
67549;DHT22;54382;53.524;49.326;2022-07-21T14:49:39;30.40;41.40
67549;DHT22;54382;53.524;49.326;2022-07-21T14:52:06;30.30;41.80
67549;DHT22;54382;53.524;49.326;2022-07-21T14:54:33;30.10;42.00
67549;DHT22;54382;53.524;49.326;2022-07-21T14:57:00;30.00;42.80
67549;DHT22;54382;53.524;49.326;2022-07-21T14:59:27;29.80;43.30
67549;DHT22;54382;53.524;49.326;2022-07-21T15:01:54;29.70;43.50
67549;DHT22;54382;53.524;49.326;2022-07-21T15:04:20;29.60;43.90
67549;DHT22;54382;53.524;49.326;2022-07-21T15:06:48;29.50;44.30
67549;DHT22;54382;53.524;49.326;2022-07-21T15:09:15;29.40;44.80
67549;DHT22;54382;53.524;49.326;2022-07-21T15:11:42;29.30;45.20
67549;DHT22;54382;53.524;49.326;2022-07-21T15:14:09;29.20;45.80
67549;DHT22;54382;53.524;49.326;2022-07-21T15:16:36;29.20;46.20
67549;DHT22;54382;53.524;49.326;2022-07-21T15:19:02;29.10;46.50
67549;DHT22;54382;53.524;49.326;2022-07-21T15:21:29;28.90;46.60
67549;DHT22;54382;53.524;49.326;2022-07-21T15:23:56;28.80;46.60
67549;DHT22;54382;53.524;49.326;2022-07-21T15:26:22;28.60;47.30
67549;DHT22;54382;53.524;49.326;2022-07-21T15:28:49;28.50;48.40
67549;DHT22;54382;53.524;49.326;2022-07-21T15:31:16;28.40;48.20
67549;DHT22;54382;53.524;49.326;2022-07-21T15:33:42;28.30;48.60
67549;DHT22;54382;53.524;49.326;2022-07-21T15:36:09;28.20;49.00
67549;DHT22;54382;53.524;49.326;2022-07-21T15:38:36;28.20;49.30
67549;DHT22;54382;53.524;49.326;2022-07-21T15:41:03;28.10;49.10
67549;DHT22;54382;53.524;49.326;2022-07-21T15:43:30;28.20;49.30